Terminal Aerodrome Forecast
Issued by NWS

Home | Current Version | Previous Version | Text Only | Print | Product List | Glossary On
Versions: 1 2 3 4 5 6 7 8 9 10 11 12 13 14 15
000
FTUS43 KEAX 220500
TAFMKC
TAF
KMKC 220520Z 2206/2306 10010KT P6SM SKC
     FM221000 11012KT P6SM BKN050
     FM221300 13009KT P6SM VCSH BKN035
     FM221700 16010KT P6SM SCT030=

USA.gov is the U.S. government's official web portal to all federal, state and local government web resources and services.